sensor_id;sensor_type;location;lat;lon;timestamp;P1;durP1;ratioP1;P2;durP2;ratioP2
5890;SDS011;2971;52.420;7.080;2023-04-01T00:00:59;6.20;;;4.13;;
5890;SDS011;2971;52.420;7.080;2023-04-01T00:03:26;11.67;;;4.43;;
5890;SDS011;2971;52.420;7.080;2023-04-01T00:05:52;8.27;;;4.33;;
5890;SDS011;2971;52.420;7.080;2023-04-01T00:08:17;6.10;;;4.10;;
5890;SDS011;2971;52.420;7.080;2023-04-01T00:10:43;8.47;;;4.70;;
5890;SDS011;2971;52.420;7.080;2023-04-01T00:13:08;5.77;;;4.23;;
5890;SDS011;2971;52.420;7.080;2023-04-01T00:15:34;5.87;;;4.50;;
5890;SDS011;2971;52.420;7.080;2023-04-01T00:17:59;6.20;;;4.20;;
5890;SDS011;2971;52.420;7.080;2023-04-01T00:20:26;6.50;;;4.50;;
5890;SDS011;2971;52.420;7.080;2023-04-01T00:22:51;7.80;;;4.90;;
5890;SDS011;2971;52.420;7.080;2023-04-01T00:25:17;7.60;;;5.23;;
5890;SDS011;2971;52.420;7.080;2023-04-01T00:27:43;7.13;;;5.03;;
5890;SDS011;2971;52.420;7.080;2023-04-01T00:30:09;9.20;;;5.70;;
5890;SDS011;2971;52.420;7.080;2023-04-01T00:32:35;7.27;;;5.27;;
5890;SDS011;2971;52.420;7.080;2023-04-01T00:35:00;8.00;;;5.27;;
5890;SDS011;2971;52.420;7.080;2023-04-01T00:37:26;5.47;;;4.77;;
5890;SDS011;2971;52.420;7.080;2023-04-01T00:39:52;7.93;;;5.70;;
5890;SDS011;2971;52.420;7.080;2023-04-01T00:42:18;6.53;;;5.67;;
5890;SDS011;2971;52.420;7.080;2023-04-01T00:44:45;6.33;;;5.30;;
5890;SDS011;2971;52.420;7.080;2023-04-01T00:47:15;7.13;;;5.10;;
5890;SDS011;2971;52.420;7.080;2023-04-01T00:49:41;7.10;;;5.20;;
5890;SDS011;2971;52.420;7.080;2023-04-01T00:52:08;6.83;;;5.27;;
5890;SDS011;2971;52.420;7.080;2023-04-01T00:54:36;8.13;;;5.30;;
5890;SDS011;2971;52.420;7.080;2023-04-01T00:57:07;5.43;;;4.87;;
5890;SDS011;2971;52.420;7.080;2023-04-01T00:59:39;5.00;;;4.50;;
5890;SDS011;2971;52.420;7.080;2023-04-01T01:02:08;7.53;;;5.03;;
5890;SDS011;2971;52.420;7.080;2023-04-01T01:04:36;8.03;;;4.93;;
5890;SDS011;2971;52.420;7.080;2023-04-01T01:31:09;6.27;;;5.10;;
5890;SDS011;2971;52.420;7.080;2023-04-01T01:36:09;6.07;;;4.77;;
5890;SDS011;2971;52.420;7.080;2023-04-01T01:38:38;6.90;;;4.90;;
5890;SDS011;2971;52.420;7.080;2023-04-01T01:41:04;5.07;;;4.53;;
5890;SDS011;2971;52.420;7.080;2023-04-01T01:43:32;5.37;;;4.87;;
5890;SDS011;2971;52.420;7.080;2023-04-01T01:46:03;6.20;;;5.03;;
5890;SDS011;2971;52.420;7.080;2023-04-01T01:48:34;5.80;;;5.00;;
5890;SDS011;2971;52.420;7.080;2023-04-01T01:51:00;6.77;;;5.83;;
5890;SDS011;2971;52.420;7.080;2023-04-01T01:53:25;5.80;;;5.00;;
5890;SDS011;2971;52.420;7.080;2023-04-01T01:55:51;6.10;;;5.30;;
5890;SDS011;2971;52.420;7.080;2023-04-01T02:00:51;6.23;;;5.30;;
5890;SDS011;2971;52.420;7.080;2023-04-01T02:03:21;5.87;;;5.37;;
5890;SDS011;2971;52.420;7.080;2023-04-01T02:05:49;7.13;;;5.33;;
5890;SDS011;2971;52.420;7.080;2023-04-01T02:08:23;6.60;;;5.50;;
5890;SDS011;2971;52.420;7.080;2023-04-01T02:11:02;5.93;;;5.33;;
5890;SDS011;2971;52.420;7.080;2023-04-01T02:13:31;6.07;;;5.27;;
5890;SDS011;2971;52.420;7.080;2023-04-01T02:16:02;6.57;;;5.63;;
5890;SDS011;2971;52.420;7.080;2023-04-01T02:18:32;6.70;;;5.70;;
5890;SDS011;2971;52.420;7.080;2023-04-01T02:21:00;6.60;;;6.00;;
5890;SDS011;2971;52.420;7.080;2023-04-01T02:23:26;7.10;;;6.40;;
5890;SDS011;2971;52.420;7.080;2023-04-01T02:25:52;6.77;;;6.17;;
5890;SDS011;2971;52.420;7.080;2023-04-01T02:28:18;6.70;;;6.00;;
5890;SDS011;2971;52.420;7.080;2023-04-01T02:30:45;6.37;;;5.77;;
5890;SDS011;2971;52.420;7.080;2023-04-01T02:33:12;6.67;;;6.00;;
5890;SDS011;2971;52.420;7.080;2023-04-01T02:35:38;6.40;;;5.80;;
5890;SDS011;2971;52.420;7.080;2023-04-01T02:38:04;6.83;;;6.17;;
5890;SDS011;2971;52.420;7.080;2023-04-01T02:40:40;6.70;;;6.03;;
5890;SDS011;2971;52.420;7.080;2023-04-01T02:43:09;7.13;;;6.43;;
5890;SDS011;2971;52.420;7.080;2023-04-01T02:45:35;6.47;;;5.87;;
5890;SDS011;2971;52.420;7.080;2023-04-01T02:48:00;7.77;;;6.20;;
5890;SDS011;2971;52.420;7.080;2023-04-01T02:50:26;6.10;;;5.57;;
5890;SDS011;2971;52.420;7.080;2023-04-01T02:52:51;7.00;;;5.70;;
5890;SDS011;2971;52.420;7.080;2023-04-01T02:55:16;6.37;;;5.70;;
5890;SDS011;2971;52.420;7.080;2023-04-01T02:57:42;6.07;;;5.57;;
5890;SDS011;2971;52.420;7.080;2023-04-01T03:00:07;6.03;;;5.53;;
5890;SDS011;2971;52.420;7.080;2023-04-01T03:02:36;6.00;;;5.50;;
5890;SDS011;2971;52.420;7.080;2023-04-01T03:05:03;6.00;;;5.50;;
5890;SDS011;2971;52.420;7.080;2023-04-01T03:07:29;6.10;;;5.50;;
5890;SDS011;2971;52.420;7.080;2023-04-01T03:09:54;5.83;;;5.10;;
5890;SDS011;2971;52.420;7.080;2023-04-01T03:12:20;5.97;;;5.30;;
5890;SDS011;2971;52.420;7.080;2023-04-01T03:14:45;6.53;;;5.60;;
5890;SDS011;2971;52.420;7.080;2023-04-01T03:17:10;5.93;;;5.40;;
5890;SDS011;2971;52.420;7.080;2023-04-01T03:19:36;5.90;;;5.30;;
5890;SDS011;2971;52.420;7.080;2023-04-01T03:22:01;5.43;;;5.03;;
5890;SDS011;2971;52.420;7.080;2023-04-01T03:24:27;6.13;;;5.63;;
5890;SDS011;2971;52.420;7.080;2023-04-01T03:26:52;5.77;;;5.27;;
5890;SDS011;2971;52.420;7.080;2023-04-01T03:29:17;5.70;;;5.20;;
5890;SDS011;2971;52.420;7.080;2023-04-01T03:31:43;5.93;;;5.43;;
5890;SDS011;2971;52.420;7.080;2023-04-01T03:34:08;6.33;;;5.77;;
5890;SDS011;2971;52.420;7.080;2023-04-01T03:36:34;6.13;;;5.63;;
5890;SDS011;2971;52.420;7.080;2023-04-01T03:38:59;5.97;;;5.30;;
5890;SDS011;2971;52.420;7.080;2023-04-01T03:41:25;6.00;;;5.40;;
5890;SDS011;2971;52.420;7.080;2023-04-01T03:43:51;6.23;;;5.70;;
5890;SDS011;2971;52.420;7.080;2023-04-01T03:46:18;5.80;;;5.33;;
5890;SDS011;2971;52.420;7.080;2023-04-01T03:48:45;6.10;;;5.60;;
5890;SDS011;2971;52.420;7.080;2023-04-01T03:51:10;6.03;;;5.53;;
5890;SDS011;2971;52.420;7.080;2023-04-01T03:53:36;6.30;;;5.80;;
5890;SDS011;2971;52.420;7.080;2023-04-01T03:56:05;6.60;;;6.10;;
5890;SDS011;2971;52.420;7.080;2023-04-01T03:58:31;7.00;;;6.40;;
5890;SDS011;2971;52.420;7.080;2023-04-01T04:00:57;6.63;;;6.13;;
5890;SDS011;2971;52.420;7.080;2023-04-01T04:03:22;6.77;;;6.23;;
5890;SDS011;2971;52.420;7.080;2023-04-01T04:05:48;6.87;;;6.27;;
5890;SDS011;2971;52.420;7.080;2023-04-01T04:08:14;7.63;;;6.93;;
5890;SDS011;2971;52.420;7.080;2023-04-01T04:10:40;7.27;;;6.57;;
5890;SDS011;2971;52.420;7.080;2023-04-01T04:13:06;7.37;;;6.67;;
5890;SDS011;2971;52.420;7.080;2023-04-01T04:15:31;7.30;;;6.67;;
5890;SDS011;2971;52.420;7.080;2023-04-01T04:17:57;7.53;;;6.83;;
5890;SDS011;2971;52.420;7.080;2023-04-01T04:20:22;7.30;;;6.70;;
5890;SDS011;2971;52.420;7.080;2023-04-01T04:22:47;7.63;;;6.90;;
5890;SDS011;2971;52.420;7.080;2023-04-01T04:25:13;7.10;;;6.40;;
5890;SDS011;2971;52.420;7.080;2023-04-01T04:27:38;7.17;;;6.57;;
5890;SDS011;2971;52.420;7.080;2023-04-01T04:30:04;6.50;;;5.93;;
5890;SDS011;2971;52.420;7.080;2023-04-01T04:32:31;7.60;;;7.00;;
5890;SDS011;2971;52.420;7.080;2023-04-01T04:34:56;8.00;;;7.30;;
5890;SDS011;2971;52.420;7.080;2023-04-01T04:37:22;7.70;;;7.00;;
5890;SDS011;2971;52.420;7.080;2023-04-01T04:39:47;8.13;;;7.33;;
5890;SDS011;2971;52.420;7.080;2023-04-01T04:42:13;8.13;;;7.40;;
5890;SDS011;2971;52.420;7.080;2023-04-01T04:44:38;9.00;;;8.20;;
5890;SDS011;2971;52.420;7.080;2023-04-01T04:47:04;9.00;;;8.20;;
5890;SDS011;2971;52.420;7.080;2023-04-01T04:49:30;8.53;;;7.83;;
5890;SDS011;2971;52.420;7.080;2023-04-01T04:51:55;9.33;;;8.53;;
5890;SDS011;2971;52.420;7.080;2023-04-01T04:54:20;10.00;;;9.03;;
5890;SDS011;2971;52.420;7.080;2023-04-01T04:56:46;9.90;;;8.90;;
5890;SDS011;2971;52.420;7.080;2023-04-01T04:59:11;11.03;;;9.77;;
5890;SDS011;2971;52.420;7.080;2023-04-01T05:01:37;10.77;;;9.67;;
5890;SDS011;2971;52.420;7.080;2023-04-01T05:04:03;11.33;;;9.90;;
5890;SDS011;2971;52.420;7.080;2023-04-01T05:06:28;10.33;;;9.33;;
5890;SDS011;2971;52.420;7.080;2023-04-01T05:08:57;10.83;;;9.80;;
5890;SDS011;2971;52.420;7.080;2023-04-01T05:11:22;12.23;;;10.53;;
5890;SDS011;2971;52.420;7.080;2023-04-01T05:13:48;15.07;;;11.37;;
5890;SDS011;2971;52.420;7.080;2023-04-01T05:16:14;17.27;;;11.43;;
5890;SDS011;2971;52.420;7.080;2023-04-01T05:18:42;13.77;;;12.10;;
5890;SDS011;2971;52.420;7.080;2023-04-01T05:21:08;17.77;;;13.23;;
5890;SDS011;2971;52.420;7.080;2023-04-01T05:23:34;16.97;;;12.93;;
5890;SDS011;2971;52.420;7.080;2023-04-01T05:26:04;17.43;;;13.13;;
5890;SDS011;2971;52.420;7.080;2023-04-01T05:28:30;17.63;;;13.80;;
5890;SDS011;2971;52.420;7.080;2023-04-01T05:30:57;19.93;;;13.70;;
5890;SDS011;2971;52.420;7.080;2023-04-01T05:33:23;18.10;;;13.27;;
5890;SDS011;2971;52.420;7.080;2023-04-01T05:35:49;18.37;;;13.83;;
5890;SDS011;2971;52.420;7.080;2023-04-01T05:38:14;16.13;;;12.73;;
5890;SDS011;2971;52.420;7.080;2023-04-01T05:40:40;20.07;;;13.23;;
5890;SDS011;2971;52.420;7.080;2023-04-01T05:43:05;17.47;;;13.80;;
5890;SDS011;2971;52.420;7.080;2023-04-01T05:45:30;17.40;;;13.30;;
5890;SDS011;2971;52.420;7.080;2023-04-01T05:47:56;16.67;;;12.93;;
5890;SDS011;2971;52.420;7.080;2023-04-01T05:50:21;18.90;;;14.03;;
5890;SDS011;2971;52.420;7.080;2023-04-01T05:52:47;18.27;;;13.40;;
5890;SDS011;2971;52.420;7.080;2023-04-01T05:55:12;15.87;;;13.00;;
5890;SDS011;2971;52.420;7.080;2023-04-01T05:57:37;23.77;;;13.60;;
5890;SDS011;2971;52.420;7.080;2023-04-01T06:00:03;16.17;;;12.93;;
5890;SDS011;2971;52.420;7.080;2023-04-01T06:02:29;17.53;;;13.03;;
5890;SDS011;2971;52.420;7.080;2023-04-01T06:05:14;16.97;;;12.57;;
5890;SDS011;2971;52.420;7.080;2023-04-01T06:07:44;16.23;;;12.63;;
5890;SDS011;2971;52.420;7.080;2023-04-01T06:10:14;21.97;;;13.77;;
5890;SDS011;2971;52.420;7.080;2023-04-01T06:12:50;19.00;;;13.77;;
5890;SDS011;2971;52.420;7.080;2023-04-01T06:17:49;14.60;;;12.13;;
5890;SDS011;2971;52.420;7.080;2023-04-01T06:26:08;15.70;;;12.20;;
5890;SDS011;2971;52.420;7.080;2023-04-01T06:36:46;10.80;;;9.70;;
5890;SDS011;2971;52.420;7.080;2023-04-01T06:44:38;8.63;;;7.73;;
5890;SDS011;2971;52.420;7.080;2023-04-01T06:50:15;6.00;;;5.40;;
5890;SDS011;2971;52.420;7.080;2023-04-01T06:55:41;6.37;;;5.77;;
5890;SDS011;2971;52.420;7.080;2023-04-01T06:58:31;7.53;;;6.73;;
5890;SDS011;2971;52.420;7.080;2023-04-01T07:00:56;7.33;;;6.57;;
5890;SDS011;2971;52.420;7.080;2023-04-01T07:09:26;7.47;;;6.77;;
5890;SDS011;2971;52.420;7.080;2023-04-01T07:11:58;7.10;;;6.43;;
5890;SDS011;2971;52.420;7.080;2023-04-01T07:14:29;6.63;;;5.80;;
5890;SDS011;2971;52.420;7.080;2023-04-01T07:22:32;5.83;;;5.17;;
5890;SDS011;2971;52.420;7.080;2023-04-01T07:25:20;4.67;;;4.30;;
5890;SDS011;2971;52.420;7.080;2023-04-01T07:27:50;4.47;;;4.07;;
5890;SDS011;2971;52.420;7.080;2023-04-01T07:30:19;4.93;;;4.13;;
5890;SDS011;2971;52.420;7.080;2023-04-01T07:35:41;5.10;;;4.70;;
5890;SDS011;2971;52.420;7.080;2023-04-01T07:44:11;5.60;;;5.10;;
5890;SDS011;2971;52.420;7.080;2023-04-01T07:46:53;5.00;;;4.50;;
5890;SDS011;2971;52.420;7.080;2023-04-01T07:51:57;5.70;;;5.20;;
5890;SDS011;2971;52.420;7.080;2023-04-01T07:54:29;5.20;;;4.70;;
5890;SDS011;2971;52.420;7.080;2023-04-01T08:10:25;6.80;;;5.63;;
5890;SDS011;2971;52.420;7.080;2023-04-01T08:15:39;6.53;;;5.83;;
5890;SDS011;2971;52.420;7.080;2023-04-01T08:18:35;7.93;;;6.23;;
5890;SDS011;2971;52.420;7.080;2023-04-01T08:21:15;7.83;;;7.10;;
5890;SDS011;2971;52.420;7.080;2023-04-01T08:23:49;6.63;;;5.97;;
5890;SDS011;2971;52.420;7.080;2023-04-01T08:26:28;6.53;;;5.93;;
5890;SDS011;2971;52.420;7.080;2023-04-01T08:31:24;5.90;;;5.30;;
5890;SDS011;2971;52.420;7.080;2023-04-01T08:33:56;6.27;;;5.30;;
5890;SDS011;2971;52.420;7.080;2023-04-01T08:41:36;5.53;;;5.00;;
5890;SDS011;2971;52.420;7.080;2023-04-01T08:50:22;4.87;;;4.43;;
5890;SDS011;2971;52.420;7.080;2023-04-01T08:53:11;4.63;;;3.83;;
5890;SDS011;2971;52.420;7.080;2023-04-01T09:01:51;4.93;;;4.53;;
5890;SDS011;2971;52.420;7.080;2023-04-01T09:10:24;5.27;;;4.77;;
5890;SDS011;2971;52.420;7.080;2023-04-01T09:21:31;4.10;;;3.70;;
5890;SDS011;2971;52.420;7.080;2023-04-01T09:29:51;5.20;;;4.53;;
5890;SDS011;2971;52.420;7.080;2023-04-01T09:35:42;4.53;;;4.13;;
5890;SDS011;2971;52.420;7.080;2023-04-01T09:38:28;4.63;;;4.23;;
5890;SDS011;2971;52.420;7.080;2023-04-01T09:41:01;5.10;;;4.70;;
5890;SDS011;2971;52.420;7.080;2023-04-01T09:54:40;5.03;;;4.53;;
5890;SDS011;2971;52.420;7.080;2023-04-01T10:14:10;4.07;;;3.53;;
5890;SDS011;2971;52.420;7.080;2023-04-01T10:22:40;4.70;;;4.30;;
5890;SDS011;2971;52.420;7.080;2023-04-01T10:50:44;4.03;;;3.63;;
5890;SDS011;2971;52.420;7.080;2023-04-01T10:53:50;3.43;;;3.13;;
5890;SDS011;2971;52.420;7.080;2023-04-01T10:56:40;3.93;;;3.00;;
5890;SDS011;2971;52.420;7.080;2023-04-01T10:59:31;2.97;;;2.77;;
5890;SDS011;2971;52.420;7.080;2023-04-01T11:15:34;3.40;;;3.10;;
5890;SDS011;2971;52.420;7.080;2023-04-01T11:18:10;3.30;;;3.10;;
5890;SDS011;2971;52.420;7.080;2023-04-01T11:29:27;2.70;;;2.50;;
5890;SDS011;2971;52.420;7.080;2023-04-01T11:35:20;3.63;;;2.37;;
5890;SDS011;2971;52.420;7.080;2023-04-01T11:40:29;2.83;;;2.63;;
5890;SDS011;2971;52.420;7.080;2023-04-01T11:43:11;3.40;;;2.80;;
5890;SDS011;2971;52.420;7.080;2023-04-01T11:45:51;2.23;;;2.03;;
5890;SDS011;2971;52.420;7.080;2023-04-01T11:53:47;2.50;;;2.30;;
5890;SDS011;2971;52.420;7.080;2023-04-01T12:16:09;1.77;;;1.67;;
5890;SDS011;2971;52.420;7.080;2023-04-01T12:18:46;2.10;;;1.77;;
5890;SDS011;2971;52.420;7.080;2023-04-01T12:44:13;1.90;;;1.70;;
5890;SDS011;2971;52.420;7.080;2023-04-01T12:46:50;2.17;;;2.00;;
5890;SDS011;2971;52.420;7.080;2023-04-01T13:04:00;3.53;;;2.20;;
5890;SDS011;2971;52.420;7.080;2023-04-01T13:06:58;2.33;;;2.13;;
5890;SDS011;2971;52.420;7.080;2023-04-01T13:23:06;5.43;;;4.93;;
5890;SDS011;2971;52.420;7.080;2023-04-01T13:31:11;4.00;;;3.70;;
5890;SDS011;2971;52.420;7.080;2023-04-01T13:36:40;5.10;;;4.60;;
5890;SDS011;2971;52.420;7.080;2023-04-01T13:42:14;4.83;;;4.43;;
5890;SDS011;2971;52.420;7.080;2023-04-01T13:48:04;5.10;;;4.70;;
5890;SDS011;2971;52.420;7.080;2023-04-01T13:56:29;4.70;;;4.40;;
5890;SDS011;2971;52.420;7.080;2023-04-01T14:13:40;5.30;;;4.90;;
5890;SDS011;2971;52.420;7.080;2023-04-01T14:19:17;5.70;;;5.30;;
5890;SDS011;2971;52.420;7.080;2023-04-01T14:32:56;5.77;;;5.27;;
5890;SDS011;2971;52.420;7.080;2023-04-01T14:50:17;7.10;;;6.50;;
5890;SDS011;2971;52.420;7.080;2023-04-01T14:52:59;7.00;;;6.50;;
5890;SDS011;2971;52.420;7.080;2023-04-01T15:06:52;6.60;;;6.10;;
5890;SDS011;2971;52.420;7.080;2023-04-01T15:14:35;5.70;;;5.30;;
5890;SDS011;2971;52.420;7.080;2023-04-01T15:17:05;5.13;;;4.73;;
5890;SDS011;2971;52.420;7.080;2023-04-01T15:39:00;4.47;;;4.17;;
5890;SDS011;2971;52.420;7.080;2023-04-01T15:47:28;5.33;;;5.03;;
5890;SDS011;2971;52.420;7.080;2023-04-01T15:50:13;5.30;;;4.90;;
5890;SDS011;2971;52.420;7.080;2023-04-01T15:55:25;4.10;;;3.80;;
5890;SDS011;2971;52.420;7.080;2023-04-01T16:09:39;3.30;;;3.10;;
5890;SDS011;2971;52.420;7.080;2023-04-01T16:12:18;3.27;;;3.07;;
5890;SDS011;2971;52.420;7.080;2023-04-01T16:26:08;3.47;;;3.20;;
5890;SDS011;2971;52.420;7.080;2023-04-01T16:28:57;3.40;;;3.10;;
5890;SDS011;2971;52.420;7.080;2023-04-01T16:34:53;3.57;;;3.30;;
5890;SDS011;2971;52.420;7.080;2023-04-01T16:37:46;3.30;;;3.10;;
5890;SDS011;2971;52.420;7.080;2023-04-01T16:43:05;4.83;;;4.43;;
5890;SDS011;2971;52.420;7.080;2023-04-01T16:45:47;3.33;;;3.13;;
5890;SDS011;2971;52.420;7.080;2023-04-01T16:48:25;3.27;;;3.07;;
5890;SDS011;2971;52.420;7.080;2023-04-01T16:51:28;2.63;;;2.53;;
5890;SDS011;2971;52.420;7.080;2023-04-01T16:53:48;3.50;;;2.87;;
5890;SDS011;2971;52.420;7.080;2023-04-01T16:56:22;2.97;;;2.77;;
5890;SDS011;2971;52.420;7.080;2023-04-01T16:59:03;4.17;;;2.80;;
5890;SDS011;2971;52.420;7.080;2023-04-01T17:04:32;2.80;;;2.60;;
5890;SDS011;2971;52.420;7.080;2023-04-01T17:15:02;2.60;;;2.40;;
5890;SDS011;2971;52.420;7.080;2023-04-01T17:20:24;2.40;;;2.30;;
5890;SDS011;2971;52.420;7.080;2023-04-01T17:25:28;2.37;;;2.17;;
5890;SDS011;2971;52.420;7.080;2023-04-01T17:30:35;2.90;;;2.70;;
5890;SDS011;2971;52.420;7.080;2023-04-01T17:44:38;2.93;;;2.73;;
5890;SDS011;2971;52.420;7.080;2023-04-01T17:47:09;3.20;;;3.00;;
5890;SDS011;2971;52.420;7.080;2023-04-01T17:49:49;3.07;;;2.77;;
5890;SDS011;2971;52.420;7.080;2023-04-01T18:00:34;3.47;;;3.17;;
5890;SDS011;2971;52.420;7.080;2023-04-01T18:03:24;3.00;;;2.80;;
5890;SDS011;2971;52.420;7.080;2023-04-01T18:06:17;3.27;;;3.00;;
5890;SDS011;2971;52.420;7.080;2023-04-01T18:08:58;3.73;;;3.10;;
5890;SDS011;2971;52.420;7.080;2023-04-01T18:14:21;4.17;;;3.60;;
5890;SDS011;2971;52.420;7.080;2023-04-01T18:16:56;3.83;;;3.53;;
5890;SDS011;2971;52.420;7.080;2023-04-01T18:22:26;5.63;;;4.20;;
5890;SDS011;2971;52.420;7.080;2023-04-01T18:25:02;3.70;;;3.40;;
5890;SDS011;2971;52.420;7.080;2023-04-01T18:28:21;3.70;;;3.40;;
5890;SDS011;2971;52.420;7.080;2023-04-01T18:33:31;3.93;;;3.60;;
5890;SDS011;2971;52.420;7.080;2023-04-01T18:39:02;5.30;;;4.90;;
5890;SDS011;2971;52.420;7.080;2023-04-01T18:41:40;4.53;;;4.13;;
5890;SDS011;2971;52.420;7.080;2023-04-01T18:47:12;5.00;;;4.60;;
5890;SDS011;2971;52.420;7.080;2023-04-01T18:52:58;5.30;;;4.90;;
5890;SDS011;2971;52.420;7.080;2023-04-01T18:55:35;7.37;;;5.17;;
5890;SDS011;2971;52.420;7.080;2023-04-01T19:01:04;4.30;;;4.00;;
5890;SDS011;2971;52.420;7.080;2023-04-01T19:06:25;4.70;;;4.30;;
5890;SDS011;2971;52.420;7.080;2023-04-01T19:09:00;4.33;;;3.97;;
5890;SDS011;2971;52.420;7.080;2023-04-01T19:25:57;5.30;;;4.90;;
5890;SDS011;2971;52.420;7.080;2023-04-01T19:31:44;4.93;;;4.53;;
5890;SDS011;2971;52.420;7.080;2023-04-01T19:53:07;4.30;;;3.90;;
5890;SDS011;2971;52.420;7.080;2023-04-01T19:56:01;3.53;;;3.23;;
5890;SDS011;2971;52.420;7.080;2023-04-01T20:01:05;3.70;;;3.40;;
5890;SDS011;2971;52.420;7.080;2023-04-01T20:03:39;3.47;;;3.20;;
5890;SDS011;2971;52.420;7.080;2023-04-01T20:11:56;4.03;;;3.73;;
5890;SDS011;2971;52.420;7.080;2023-04-01T20:17:21;3.80;;;3.50;;
5890;SDS011;2971;52.420;7.080;2023-04-01T20:19:57;3.70;;;3.40;;
5890;SDS011;2971;52.420;7.080;2023-04-01T20:25:17;4.63;;;4.20;;
5890;SDS011;2971;52.420;7.080;2023-04-01T20:40:52;5.37;;;4.90;;
5890;SDS011;2971;52.420;7.080;2023-04-01T20:43:35;4.70;;;4.30;;
5890;SDS011;2971;52.420;7.080;2023-04-01T20:46:14;4.43;;;4.03;;
5890;SDS011;2971;52.420;7.080;2023-04-01T20:49:10;4.70;;;4.30;;
5890;SDS011;2971;52.420;7.080;2023-04-01T20:55:26;5.10;;;4.67;;
5890;SDS011;2971;52.420;7.080;2023-04-01T21:00:37;6.07;;;5.47;;
5890;SDS011;2971;52.420;7.080;2023-04-01T21:03:20;6.50;;;5.90;;
5890;SDS011;2971;52.420;7.080;2023-04-01T21:09:39;6.33;;;5.77;;
5890;SDS011;2971;52.420;7.080;2023-04-01T21:15:13;6.87;;;6.20;;
5890;SDS011;2971;52.420;7.080;2023-04-01T21:18:45;7.67;;;7.03;;
5890;SDS011;2971;52.420;7.080;2023-04-01T21:29:11;8.20;;;7.37;;
5890;SDS011;2971;52.420;7.080;2023-04-01T21:42:48;9.00;;;7.50;;
5890;SDS011;2971;52.420;7.080;2023-04-01T21:45:32;8.10;;;7.30;;
5890;SDS011;2971;52.420;7.080;2023-04-01T22:07:35;6.93;;;6.33;;
5890;SDS011;2971;52.420;7.080;2023-04-01T22:10:10;7.60;;;6.90;;
5890;SDS011;2971;52.420;7.080;2023-04-01T22:12:48;7.60;;;6.43;;
5890;SDS011;2971;52.420;7.080;2023-04-01T22:18:54;7.53;;;6.33;;
5890;SDS011;2971;52.420;7.080;2023-04-01T22:27:01;7.87;;;6.00;;
5890;SDS011;2971;52.420;7.080;2023-04-01T22:29:31;6.40;;;5.80;;
5890;SDS011;2971;52.420;7.080;2023-04-01T22:32:19;7.10;;;6.40;;
5890;SDS011;2971;52.420;7.080;2023-04-01T22:34:53;6.47;;;5.50;;
5890;SDS011;2971;52.420;7.080;2023-04-01T22:37:38;13.73;;;6.53;;
5890;SDS011;2971;52.420;7.080;2023-04-01T22:42:59;8.40;;;6.23;;
5890;SDS011;2971;52.420;7.080;2023-04-01T22:48:20;5.97;;;5.13;;
5890;SDS011;2971;52.420;7.080;2023-04-01T22:51:03;6.97;;;5.80;;
5890;SDS011;2971;52.420;7.080;2023-04-01T22:56:07;6.97;;;5.80;;
5890;SDS011;2971;52.420;7.080;2023-04-01T22:58:49;7.07;;;5.87;;
5890;SDS011;2971;52.420;7.080;2023-04-01T23:01:20;6.30;;;5.70;;
5890;SDS011;2971;52.420;7.080;2023-04-01T23:03:49;5.87;;;5.37;;
5890;SDS011;2971;52.420;7.080;2023-04-01T23:06:18;6.57;;;5.47;;
5890;SDS011;2971;52.420;7.080;2023-04-01T23:08:50;6.20;;;5.60;;
5890;SDS011;2971;52.420;7.080;2023-04-01T23:11:44;6.20;;;5.60;;
5890;SDS011;2971;52.420;7.080;2023-04-01T23:16:52;7.77;;;5.80;;
5890;SDS011;2971;52.420;7.080;2023-04-01T23:19:24;7.50;;;6.70;;
5890;SDS011;2971;52.420;7.080;2023-04-01T23:38:14;9.53;;;7.63;;
5890;SDS011;2971;52.420;7.080;2023-04-01T23:40:40;8.70;;;7.70;;
5890;SDS011;2971;52.420;7.080;2023-04-01T23:45:56;9.17;;;7.47;;
5890;SDS011;2971;52.420;7.080;2023-04-01T23:48:29;8.30;;;7.50;;
5890;SDS011;2971;52.420;7.080;2023-04-01T23:50:57;10.87;;;7.47;;
5890;SDS011;2971;52.420;7.080;2023-04-01T23:53:24;8.70;;;7.73;;
5890;SDS011;2971;52.420;7.080;2023-04-01T23:55:51;8.60;;;7.67;;
5890;SDS011;2971;52.420;7.080;2023-04-01T23:58:21;9.23;;;7.97;;
